Portada
METAR-TAF:

METAR-TAF

Aeropuertos :

Passo Rolle, Italia

latitud: 46-18N, longitud: 011-47E, altitud: 2004 m

Observación

El informe se hizo hace 1 hora y 3 minutos, a las 07:55 UTC
Viento 2 kt del norte-noreste
Temperatura -6°C
Humedad 73%
Presión 1014 hPa
Visibilidad 10 km o más
Escasas nubes a una altura de 2000 ft

METAR: LIVR 160755Z 02002KT 9999 FEW020 M06/M10 Q1014 RMK FEW MON LIB VIS MIN 9999

Hora: 10:58 (08:58 UTC)


TAF: falta

Observaciones y pronósticos meteorológicos de más de 4000 aeropuertos (mensajes METAR y TAF).

Los puntos amarillos y rojos representan las estaciones disponibles.

Ponga el ratón en el punto deseado para ver el nombre de la estación.

Haga clic para ver las observaciones y los pronósticos meteorológicos.

Para cambiar el mapa : haga clic en los botones verdes con una cruz de color negro para hacer un zoom, en el botón verde con un guión para alejar o en las flechas verdes para mapas adyacentes.


METAR-TAF: